createdAt,value
2018-03-24T00:01:29.503Z,99919.70
2018-03-24T00:04:35.001Z,99915.94
2018-03-24T00:07:40.796Z,99918.07
2018-03-24T00:10:46.302Z,99914.73
2018-03-24T00:13:51.856Z,99908.81
2018-03-24T00:16:57.423Z,99916.03
2018-03-24T00:20:03.319Z,99913.10
2018-03-24T00:23:08.831Z,99911.86
2018-03-24T00:26:14.366Z,99914.47
2018-03-24T00:29:19.866Z,99915.73
2018-03-24T00:32:25.470Z,99917.07
2018-03-24T00:35:30.978Z,99922.09
2018-03-24T00:38:36.537Z,99914.11
2018-03-24T00:41:42.033Z,99916.23
2018-03-24T00:44:47.655Z,99912.88
2018-03-24T00:47:53.173Z,99928.19
2018-03-24T00:50:58.575Z,99916.39
2018-03-24T00:54:04.088Z,99918.11
2018-03-24T00:57:09.486Z,99918.13
2018-03-24T01:00:14.867Z,99912.25
2018-03-24T01:03:20.287Z,99913.55
2018-03-24T01:06:25.803Z,99919.49
2018-03-24T01:09:31.391Z,99907.67
2018-03-24T01:12:36.901Z,99909.83
2018-03-24T01:15:42.496Z,99906.88
2018-03-24T01:18:48.154Z,99908.55
2018-03-24T01:21:53.698Z,99907.34
2018-03-24T01:24:59.326Z,99912.88
2018-03-24T01:28:04.885Z,99913.73
2018-03-24T01:31:10.430Z,99914.17
2018-03-24T01:34:16.022Z,99908.26
2018-03-24T01:37:21.534Z,99903.59
2018-03-24T01:40:28.806Z,99900.72
2018-03-24T01:43:34.696Z,99904.13
2018-03-24T01:46:40.277Z,99903.70
2018-03-24T01:49:45.788Z,99897.80
2018-03-24T01:52:51.334Z,99901.64
2018-03-24T01:55:56.859Z,99898.30
2018-03-24T01:59:02.646Z,99897.09
2018-03-24T02:02:07.828Z,99896.26
2018-03-24T02:05:13.382Z,99893.30
2018-03-24T02:08:18.887Z,99891.62
2018-03-24T02:11:24.693Z,99889.52
2018-03-24T02:14:30.290Z,99886.59
2018-03-24T02:17:35.837Z,99883.63
2018-03-24T02:20:41.262Z,99881.09
2018-03-24T02:23:46.610Z,99880.68
2018-03-24T02:26:52.223Z,99881.48
2018-03-24T02:29:57.768Z,99879.91
2018-03-24T02:33:03.349Z,99880.77
2018-03-24T02:36:08.887Z,99877.45
2018-03-24T02:39:14.473Z,99875.77
2018-03-24T02:42:19.979Z,99877.45
2018-03-24T02:45:25.523Z,99875.83
2018-03-24T02:48:31.062Z,99878.84
2018-03-24T02:51:36.715Z,99877.16
2018-03-24T02:54:42.740Z,99876.33
2018-03-24T02:57:48.329Z,99877.63
2018-03-24T03:00:53.839Z,99878.52
2018-03-24T03:04:01.968Z,99878.55
2018-03-24T03:07:08.978Z,99878.13
2018-03-24T03:10:16.655Z,99880.30
2018-03-24T03:13:39.950Z,99873.52
2018-03-24T03:17:11.858Z,99882.89
2018-03-24T03:24:15.005Z,99885.48
2018-03-24T03:28:03.748Z,99883.39
2018-03-24T03:31:32.878Z,99878.31
2018-03-24T03:35:03.983Z,99880.73
2018-03-24T03:38:29.812Z,99889.77
2018-03-24T03:42:00.588Z,99887.73
2018-03-24T03:45:29.315Z,99891.55
2018-03-24T03:49:02.480Z,99888.20
2018-03-24T03:52:34.133Z,99894.97
2018-03-24T03:56:00.872Z,99901.80
2018-03-24T03:59:31.866Z,99893.76
2018-03-24T04:03:14.774Z,99888.29
2018-03-24T04:06:46.246Z,99892.57
2018-03-24T04:10:23.025Z,99896.44
2018-03-24T04:17:35.864Z,99898.18
2018-03-24T04:20:51.864Z,99894.40
2018-03-24T04:24:03.712Z,99885.15
2018-03-24T04:27:19.258Z,99886.86
2018-03-24T04:30:27.250Z,99892.80
2018-03-24T04:33:43.852Z,99894.09
2018-03-24T04:36:53.749Z,99892.47
2018-03-24T04:40:01.417Z,99894.16
2018-03-24T04:43:10.275Z,99890.40
2018-03-24T04:46:17.553Z,99892.55
2018-03-24T04:49:24.784Z,99893.41
2018-03-24T04:52:30.666Z,99896.42
2018-03-24T04:55:36.419Z,99896.86
2018-03-24T04:58:41.963Z,99899.88
2018-03-24T05:01:47.466Z,99895.67
2018-03-24T05:04:53.063Z,99900.79
2018-03-24T05:07:58.634Z,99896.56
2018-03-24T05:11:04.192Z,99894.87
2018-03-24T05:14:09.702Z,99898.71
2018-03-24T05:17:15.091Z,99895.81
2018-03-24T05:20:20.727Z,99900.92
2018-03-24T05:23:26.224Z,99908.56
2018-03-24T05:26:31.758Z,99909.87
2018-03-24T05:29:37.258Z,99913.30
2018-03-24T05:32:43.727Z,99912.46
2018-03-24T05:35:49.235Z,99914.59
2018-03-24T05:38:58.630Z,99916.33
2018-03-24T05:42:07.946Z,99919.31
2018-03-24T05:45:21.177Z,99922.30
2018-03-24T05:48:27.602Z,99923.14
2018-03-24T05:51:36.585Z,99924.00
2018-03-24T05:54:44.898Z,99929.94
2018-03-24T05:57:53.520Z,99930.38
2018-03-24T06:01:00.430Z,99923.17
2018-03-24T06:04:07.238Z,99930.41
2018-03-24T06:07:12.807Z,99927.84
2018-03-24T06:10:19.025Z,99933.77
2018-03-24T06:13:25.622Z,99932.12
2018-03-24T06:16:33.501Z,99933.83
2018-03-24T06:19:43.202Z,99943.16
2018-03-24T06:23:04.394Z,99938.08
2018-03-24T06:26:09.958Z,99939.79
2018-03-24T06:29:16.115Z,99945.67
2018-03-24T06:32:21.924Z,99948.21
2018-03-24T06:35:27.365Z,99948.65
2018-03-24T06:38:32.887Z,99947.80
2018-03-24T06:41:38.455Z,99951.14
2018-03-24T06:44:44.097Z,99950.28
2018-03-24T06:47:49.841Z,99951.11
2018-03-24T06:50:55.354Z,99955.74
2018-03-24T06:54:00.890Z,99949.84
2018-03-24T06:57:06.102Z,99951.53
2018-03-24T07:00:11.719Z,99958.23
2018-03-24T07:03:17.228Z,99959.95
2018-03-24T07:06:22.780Z,99967.92
2018-03-24T07:09:28.318Z,99963.68
2018-03-24T07:12:33.867Z,99971.27
2018-03-24T07:15:39.425Z,99969.53
2018-03-24T07:18:44.978Z,99969.48
2018-03-24T07:21:56.930Z,99974.03
2018-03-24T07:25:06.312Z,99979.11
2018-03-24T07:28:12.249Z,99979.53
2018-03-24T07:31:23.765Z,99978.68
2018-03-24T07:34:42.506Z,99976.05
2018-03-24T07:38:22.608Z,99982.38
2018-03-24T07:42:03.732Z,99980.20
2018-03-24T07:45:22.778Z,99984.42
2018-03-24T07:48:57.040Z,99984.73
2018-03-24T07:52:17.127Z,99996.14
2018-03-24T07:55:41.812Z,99991.44
2018-03-24T07:59:09.241Z,99995.56
2018-03-24T08:02:31.537Z,99992.55
2018-03-24T08:05:53.673Z,99994.16
2018-03-24T08:09:31.672Z,99993.66
2018-03-24T08:12:56.692Z,100003.80
2018-03-24T08:16:36.149Z,100002.45
2018-03-24T08:20:00.355Z,99992.25
2018-03-24T08:23:40.529Z,99999.77
2018-03-24T08:27:08.669Z,99999.27
2018-03-24T08:30:36.162Z,100005.12
2018-03-24T08:34:11.150Z,100007.17
2018-03-24T08:37:30.586Z,100010.43
2018-03-24T08:41:08.066Z,100008.69
2018-03-24T08:44:34.734Z,100007.72
2018-03-24T08:47:54.564Z,100009.77
2018-03-24T08:51:35.632Z,100018.11
2018-03-24T08:55:17.678Z,100017.11
2018-03-24T08:58:44.450Z,100014.09
2018-03-24T09:02:11.191Z,100015.23
2018-03-24T09:05:48.217Z,100017.58
2018-03-24T09:09:16.243Z,100016.16
2018-03-24T09:12:34.664Z,100017.70
2018-03-24T09:15:53.971Z,100018.42
2018-03-24T09:19:12.741Z,100027.95
2018-03-24T09:22:27.545Z,100023.13
2018-03-24T09:25:41.082Z,100021.33
2018-03-24T09:28:54.671Z,100024.16
2018-03-24T09:32:00.259Z,100023.13
2018-03-24T09:35:05.813Z,100022.12
2018-03-24T09:38:11.383Z,100017.66
2018-03-24T09:41:16.939Z,100020.49
2018-03-24T09:44:22.521Z,100024.13
2018-03-24T09:47:38.870Z,100018.45
2018-03-24T09:51:02.256Z,100020.72
2018-03-24T09:54:17.944Z,100023.52
2018-03-24T09:57:40.746Z,100030.94
2018-03-24T10:00:59.558Z,100028.16
2018-03-24T10:04:21.725Z,100029.17
2018-03-24T10:07:46.402Z,100026.86
2018-03-24T10:11:10.198Z,100027.88
2018-03-24T10:14:34.774Z,100027.20
2018-03-24T10:17:56.909Z,100029.98
2018-03-24T10:25:08.497Z,100027.26
2018-03-24T10:28:25.066Z,100024.61
2018-03-24T10:31:59.871Z,100032.48
2018-03-24T10:35:19.220Z,100031.73
2018-03-24T10:38:42.988Z,100035.42
2018-03-24T10:41:55.143Z,100032.27
2018-03-24T10:45:00.758Z,100035.95
2018-03-24T10:48:06.296Z,100028.97
2018-03-24T10:51:12.916Z,100033.80
2018-03-24T10:54:19.189Z,100026.87
2018-03-24T10:57:27.927Z,100029.66
2018-03-24T11:00:33.843Z,100020.95
2018-03-24T11:03:42.563Z,100024.63
2018-03-24T11:07:00.003Z,100028.19
2018-03-24T11:17:40.696Z,100027.03
2018-03-24T11:21:02.734Z,100028.89
2018-03-24T11:24:20.550Z,100029.95
2018-03-24T11:27:40.575Z,100027.61
2018-03-24T11:31:01.883Z,100029.88
2018-03-24T11:34:22.656Z,100024.93
2018-03-24T11:37:45.222Z,100027.22
2018-03-24T11:41:03.608Z,100029.52
2018-03-24T11:44:18.632Z,100023.26
2018-03-24T11:47:38.259Z,100024.23
2018-03-24T11:51:09.538Z,100032.84
2018-03-24T11:54:41.315Z,100035.55
2018-03-24T11:57:55.725Z,100028.86
2018-03-24T12:01:02.744Z,100033.67
2018-03-24T12:04:09.161Z,100028.71
2018-03-24T12:07:14.721Z,100029.80
2018-03-24T12:10:20.488Z,100030.77
2018-03-24T12:13:26.052Z,100026.22
2018-03-24T12:16:31.608Z,100027.63
2018-03-24T12:19:37.173Z,100029.84
2018-03-24T12:22:42.698Z,100027.09
2018-03-24T12:25:50.791Z,100022.98
2018-03-24T12:29:01.048Z,100027.85
2018-03-24T12:32:06.629Z,100026.22
2018-03-24T12:35:12.945Z,100030.64
2018-03-24T12:38:18.585Z,100024.38
2018-03-24T12:41:24.985Z,100018.31
2018-03-24T12:44:32.226Z,100021.75
2018-03-24T12:47:38.149Z,100021.12
2018-03-24T12:50:43.988Z,100017.57
2018-03-24T12:53:49.571Z,100014.34
2018-03-24T12:56:55.069Z,100022.20
2018-03-24T13:07:47.496Z,100022.15
2018-03-24T13:11:05.017Z,100023.23
2018-03-24T13:14:11.210Z,100019.22
2018-03-24T13:17:16.789Z,100024.04
2018-03-24T13:20:22.398Z,100026.52
2018-03-24T13:23:28.469Z,100030.28
2018-03-24T13:26:34.411Z,100019.86
2018-03-24T13:29:40.371Z,100021.30
2018-03-24T13:32:50.662Z,100019.53
2018-03-24T13:36:01.006Z,100014.33
2018-03-24T13:39:07.752Z,100021.05
2018-03-24T13:42:13.391Z,100021.79
2018-03-24T13:45:19.667Z,100028.06
2018-03-24T13:48:25.260Z,100030.54
2018-03-24T13:51:30.851Z,100033.80
2018-03-24T13:54:37.569Z,100027.73
2018-03-24T13:57:46.201Z,100033.16
2018-03-24T14:00:54.182Z,100023.25
2018-03-24T14:04:01.350Z,100027.01
2018-03-24T14:07:06.872Z,100028.16
2018-03-24T14:10:12.492Z,100026.75
2018-03-24T14:13:18.190Z,100020.34
2018-03-24T14:16:23.710Z,100016.00
2018-03-24T14:19:30.990Z,100016.00
2018-03-24T14:22:36.636Z,100019.63
2018-03-24T14:25:42.322Z,100017.44
2018-03-24T14:28:49.875Z,100024.42
2018-03-24T14:31:56.546Z,100015.45
2018-03-24T14:35:02.152Z,100018.44
2018-03-24T14:38:09.193Z,100017.23
2018-03-24T14:41:16.134Z,100009.55
2018-03-24T14:44:29.436Z,100012.61
2018-03-24T14:47:36.523Z,100003.66
2018-03-24T14:50:42.354Z,100004.47
2018-03-24T14:53:52.439Z,100005.34
2018-03-24T14:57:02.937Z,100005.02
2018-03-24T15:00:17.997Z,100004.28
2018-03-24T15:03:30.013Z,100005.20
2018-03-24T15:06:39.168Z,100006.11
2018-03-24T15:09:48.007Z,100006.73
2018-03-24T15:12:59.302Z,100008.92
2018-03-24T15:16:06.479Z,100010.67
2018-03-24T15:19:12.621Z,100009.10
2018-03-24T15:22:18.498Z,100009.23
2018-03-24T15:25:24.142Z,100008.12
2018-03-24T15:28:29.699Z,100015.02
2018-03-24T15:31:51.593Z,100013.00
2018-03-24T15:35:24.076Z,100013.55
2018-03-24T15:38:29.645Z,100012.39
2018-03-24T15:41:35.168Z,100015.03
2018-03-24T15:44:40.791Z,100019.86
2018-03-24T15:47:50.452Z,100020.41
2018-03-24T15:51:01.443Z,100029.45
2018-03-24T15:54:08.030Z,100029.62
2018-03-24T15:57:13.673Z,100031.48
2018-03-24T16:00:19.481Z,100029.91
2018-03-24T16:03:25.476Z,100023.64
2018-03-24T16:06:31.076Z,100027.19
2018-03-24T16:09:36.636Z,100031.23
2018-03-24T16:12:42.169Z,100027.03
2018-03-24T16:15:48.465Z,100023.77
2018-03-24T16:18:54.852Z,100034.16
2018-03-24T16:22:00.459Z,100038.58
2018-03-24T16:25:06.160Z,100038.66
2018-03-24T16:28:11.735Z,100040.06
2018-03-24T16:31:17.856Z,100047.48
2018-03-24T16:34:23.800Z,100045.88
2018-03-24T16:37:29.344Z,100044.27
2018-03-24T16:40:39.388Z,100041.42
2018-03-24T16:43:46.972Z,100047.56
2018-03-24T16:46:52.501Z,100053.25
2018-03-24T16:49:58.108Z,100053.34
2018-03-24T16:53:03.842Z,100048.80
2018-03-24T16:56:11.750Z,100055.30
2018-03-24T16:59:17.434Z,100051.59
2018-03-24T17:02:22.694Z,100053.81
2018-03-24T17:05:28.653Z,100048.81
2018-03-24T17:08:35.873Z,100055.33
2018-03-24T17:11:42.031Z,100055.90
2018-03-24T17:14:47.737Z,100053.08
2018-03-24T17:17:53.295Z,100057.86
2018-03-24T17:20:58.818Z,100055.42
2018-03-24T17:24:04.578Z,100057.72
2018-03-24T17:27:10.555Z,100057.02
2018-03-24T17:30:16.363Z,100058.86
2018-03-24T17:33:21.920Z,100057.70
2018-03-24T17:36:27.650Z,100063.79
2018-03-24T17:39:33.178Z,100057.55
2018-03-24T17:42:38.740Z,100062.74
2018-03-24T17:45:44.105Z,100061.62
2018-03-24T17:48:49.751Z,100068.13
2018-03-24T17:51:55.489Z,100065.67
2018-03-24T17:55:01.041Z,100069.62
2018-03-24T17:58:08.489Z,100069.78
2018-03-24T18:01:14.118Z,100067.34
2018-03-24T18:04:19.739Z,100067.45
2018-03-24T18:07:25.291Z,100068.42
2018-03-24T18:10:34.539Z,100072.82
2018-03-24T18:13:40.381Z,100070.00
2018-03-24T18:16:45.953Z,100080.74
2018-03-24T18:19:51.621Z,100075.30
2018-03-24T18:22:57.133Z,100082.24
2018-03-24T18:26:02.685Z,100078.94
2018-03-24T18:29:08.399Z,100085.05
2018-03-24T18:32:13.908Z,100093.66
2018-03-24T18:35:19.490Z,100096.28
2018-03-24T18:38:25.064Z,100089.59
2018-03-24T18:41:30.684Z,100098.64
2018-03-24T18:44:36.277Z,100102.13
2018-03-24T18:47:41.818Z,100099.27
2018-03-24T18:50:47.441Z,100106.97
2018-03-24T18:53:53.033Z,100109.62
2018-03-24T18:56:58.562Z,100113.97
2018-03-24T19:00:03.973Z,100116.22
2018-03-24T19:03:09.653Z,100114.12
2018-03-24T19:06:15.317Z,100117.64
2018-03-24T19:09:20.907Z,100121.09
2018-03-24T19:12:26.454Z,100117.78
2018-03-24T19:15:32.017Z,100113.64
2018-03-24T19:18:37.552Z,100116.68
2018-03-24T19:21:43.165Z,100117.16
2018-03-24T19:24:48.742Z,100113.85
2018-03-24T19:27:54.404Z,100119.48
2018-03-24T19:30:59.961Z,100116.61
2018-03-24T19:34:05.546Z,100123.45
2018-03-24T19:37:11.098Z,100128.20
2018-03-24T19:40:16.645Z,100126.59
2018-03-24T19:43:22.199Z,100132.58
2018-03-24T19:46:27.749Z,100124.59
2018-03-24T19:49:33.298Z,100121.23
2018-03-24T19:52:38.844Z,100124.72
2018-03-24T19:55:44.395Z,100127.76
2018-03-24T19:58:49.914Z,100129.48
2018-03-24T20:01:55.472Z,100125.75
2018-03-24T20:05:01.107Z,100128.79
2018-03-24T20:08:06.548Z,100130.97
2018-03-24T20:11:12.364Z,100128.89
2018-03-24T20:14:18.058Z,100141.30
2018-03-24T20:17:23.312Z,100135.44
2018-03-24T20:20:30.482Z,100138.47
2018-03-24T20:23:36.905Z,100138.58
2018-03-24T20:26:48.516Z,100141.61
2018-03-24T20:29:54.148Z,100146.71
2018-03-24T20:32:59.664Z,100138.33
2018-03-24T20:36:05.265Z,100146.47
2018-03-24T20:39:11.391Z,100142.32
2018-03-24T20:42:16.918Z,100144.05
2018-03-24T20:45:25.376Z,100145.42
2018-03-24T20:48:30.961Z,100139.94
2018-03-24T20:51:36.549Z,100142.52
2018-03-24T20:54:42.124Z,100149.37
2018-03-24T20:57:47.874Z,100150.30
2018-03-24T21:00:53.429Z,100149.09
2018-03-24T21:03:59.118Z,100150.41
2018-03-24T21:07:04.722Z,100154.33
2018-03-24T21:10:10.304Z,100159.46
2018-03-24T21:13:15.889Z,100160.36
2018-03-24T21:16:21.373Z,100163.38
2018-03-24T21:19:26.946Z,100161.76
2018-03-24T21:22:32.668Z,100169.89
2018-03-24T21:25:38.165Z,100166.13
2018-03-24T21:28:44.668Z,100161.51
2018-03-24T21:31:50.218Z,100160.71
2018-03-24T21:34:55.767Z,100162.50
2018-03-24T21:38:01.318Z,100163.84
2018-03-24T21:41:06.853Z,100169.00
2018-03-24T21:44:12.365Z,100167.76
2018-03-24T21:47:32.365Z,100170.34
2018-03-24T21:51:02.331Z,100166.16
2018-03-24T21:54:34.652Z,100171.74
2018-03-24T21:57:42.882Z,100167.53
2018-03-24T22:00:48.836Z,100165.46
2018-03-24T22:03:54.381Z,100164.66
2018-03-24T22:07:00.097Z,100165.52
2018-03-24T22:10:05.821Z,100172.00
2018-03-24T22:13:11.312Z,100167.34
2018-03-24T22:16:16.858Z,100171.20
2018-03-24T22:19:22.375Z,100169.54
2018-03-24T22:22:27.939Z,100174.70
2018-03-24T22:25:33.482Z,100179.83
2018-03-24T22:28:38.990Z,100175.66
2018-03-24T22:31:44.553Z,100173.14
2018-03-24T22:34:50.070Z,100172.72
2018-03-24T22:37:55.619Z,100177.85
2018-03-24T22:41:01.226Z,100173.23
2018-03-24T22:44:06.809Z,100184.34
2018-03-24T22:47:12.326Z,100175.02
2018-03-24T22:50:17.876Z,100174.22
2018-03-24T22:53:23.387Z,100177.66
2018-03-24T22:56:28.645Z,100177.27
2018-03-24T22:59:34.157Z,100169.24
2018-03-24T23:02:39.699Z,100168.03
2018-03-24T23:05:45.248Z,100167.64
2018-03-24T23:08:50.752Z,100165.52
2018-03-24T23:11:56.297Z,100162.99
2018-03-24T23:15:01.837Z,100161.81
2018-03-24T23:18:07.394Z,100161.02
2018-03-24T23:21:12.979Z,100164.01
2018-03-24T23:24:18.383Z,100162.35
2018-03-24T23:27:23.981Z,100160.28
2018-03-24T23:30:32.309Z,100159.45
2018-03-24T23:33:37.825Z,100158.20
2018-03-24T23:36:43.361Z,100160.37
2018-03-24T23:39:48.607Z,100160.78
2018-03-24T23:42:54.147Z,100160.84
2018-03-24T23:45:59.761Z,100160.02
2018-03-24T23:49:05.369Z,100161.35
2018-03-24T23:52:10.875Z,100159.69
2018-03-24T23:55:16.453Z,100171.63
2018-03-24T23:58:21.949Z,100160.64
